Conrad, MT (59425)

6:08 PM MDT on April 23, 2017 (GMT -0600)
CENTROL Conrad | | Change Station

Elev 3517 ft 48.16 °N, 111.95 °W | Updated 29 seconds ago

Mostly Cloudy
Mostly Cloudy
52.0 °F
Feels Like 52.0 °F
N
1.9
Wind Variable Wind from ESE
Gusts 5.0 mph

Today
High -- | Low -- °F
--% Chance of Precip.
Yesterday
High -- | Low -- °F
Precip. -- in
Pressure 29.69 in
Visibility 10.0 miles
Clouds Mostly Cloudy 6500 ft
Mostly Cloudy 7500 ft
Dew Point 41 °F
Humidity 67%
Rainfall 0.07 in
Snow Depth Not available.
6:22 AM 8:30 PM
Waning Crescent, 9% visible
METAR KCTB 232356Z AUTO 13012KT 10SM BKN065 BKN075 09/05 A2968 RMK AO2 SLP054 60000 T00940050 10117 20083 55006
Pressure 29.69 in
Visibility 10.0 miles
Clouds Mostly Cloudy 6500 ft
Mostly Cloudy 7500 ft
Dew Point 41 °F
Humidity 67%
Rainfall 0.07 in
Snow Depth Not available.
6:22 AM 8:30 PM
Waning Crescent, 9% visible
METAR KCTB 232356Z AUTO 13012KT 10SM BKN065 BKN075 09/05 A2968 RMK AO2 SLP054 60000 T00940050 10117 20083 55006

Get Severe Weather Alerts

Thanks for signing up!

Be on the lookout for a verification email in your inbox.

You'll start receiving the daily forecast at 8 AM.

×

10-Day Weather Forecast

Almanac

Astronomy

Apr. 23, 2017 Rise Set
Actual Time
Civil Twilight
Nautical Twilight
Astronomical Twilight
Moon
Length of Visible Light
Length of Day
Tomorrow will be .
, % of the Moon is Illuminated

Today's Extremes

State Highs State Lows

Community

WunderPhotos

WunderBlog® & News

Nearby

Air Quality

  Air Quality AQ Index Pollutant
Not available.

Snow Depth

Station Depth Elevation

Earthquake Activity

City Distance Mag. Time & Date
Minimum magnitude displayed is 2.5.

Coastal Water Temperatures

Place Temperature

Stations

Nearby Weather Stations

Station Location Temp. Windchill Dew Point Humidity Wind Precip. Elev Updated Type
                   

Watches & Warnings

There are currently no watches in effect.